JST8013 VRMM-YPCC
Flight info
| Callsign | JST8013 |
|---|---|
| Flight time | 4h 1m |
| Altitude | 35000 |
| Route | AQAXA1A AQAXA L894 KAMUN T41 CC |
| Aircraft | A320/M-SDE3FGHIRWY/LB1 |
Departure
| Time | 2026-04-26 17:54 |
|---|---|
| Airport | Velana International Airport (VRMM) |
Arrival
| Time | 2026-04-26 21:55 |
|---|---|
| Airport | Cocos (Keeling) Islands Airport (YPCC) |
| Time | Latitude | Longitude | Altitude | Speed | Heading |
|---|---|---|---|---|---|
| 2026-04-26 17:22 | 4.18277 | 73.52786 | 13 ft | 0 kts | 270° |
| 2026-04-26 17:45 | 4.18277 | 73.52792 | 12 ft | 4 kts | 269° |
| 2026-04-26 17:45 | 4.18278 | 73.52819 | 12 ft | 4 kts | 262° |
| 2026-04-26 17:45 | 4.18285 | 73.52845 | 14 ft | 4 kts | 241° |
| 2026-04-26 17:46 | 4.18300 | 73.52861 | 14 ft | 3 kts | 182° |
| 2026-04-26 17:46 | 4.18303 | 73.52861 | 14 ft | 0 kts | 179° |
| 2026-04-26 17:49 | 4.18301 | 73.52861 | 14 ft | 2 kts | 179° |
| 2026-04-26 17:49 | 4.18281 | 73.52861 | 14 ft | 6 kts | 179° |
| 2026-04-26 17:50 | 4.18210 | 73.52863 | 12 ft | 13 kts | 179° |
| 2026-04-26 17:50 | 4.18130 | 73.52881 | 12 ft | 11 kts | 128° |
| 2026-04-26 17:50 | 4.18087 | 73.52935 | 12 ft | 11 kts | 167° |
| 2026-04-26 17:50 | 4.18007 | 73.52935 | 12 ft | 12 kts | 181° |
| 2026-04-26 17:51 | 4.17918 | 73.52934 | 12 ft | 13 kts | 177° |
| 2026-04-26 17:51 | 4.17853 | 73.52893 | 12 ft | 13 kts | 277° |
| 2026-04-26 17:51 | 4.17935 | 73.52866 | 12 ft | 14 kts | 1° |
| 2026-04-26 17:51 | 4.18039 | 73.52866 | 12 ft | 16 kts | 0° |
| 2026-04-26 17:52 | 4.18124 | 73.52905 | 12 ft | 15 kts | 66° |
| 2026-04-26 17:52 | 4.18195 | 73.52961 | 12 ft | 11 kts | 65° |
| 2026-04-26 17:52 | 4.18197 | 73.53037 | 12 ft | 12 kts | 94° |
| 2026-04-26 17:52 | 4.18215 | 73.53108 | 12 ft | 9 kts | 28° |
| 2026-04-26 17:53 | 4.18263 | 73.53103 | 12 ft | 0 kts | 357° |
| 2026-04-26 17:53 | 4.18264 | 73.53103 | 12 ft | 0 kts | 357° |
| 2026-04-26 17:53 | 4.18460 | 73.53099 | 12 ft | 64 kts | 0° |
| 2026-04-26 17:54 | 4.20084 | 73.53098 | 13 ft | 161 kts | 359° |
| 2026-04-26 17:54 | 4.21275 | 73.53073 | 390 ft | 169 kts | 358° |
| 2026-04-26 17:54 | 4.22447 | 73.53089 | 822 ft | 175 kts | 359° |
| 2026-04-26 17:54 | 4.23735 | 73.53106 | 936 ft | 194 kts | 359° |
| 2026-04-26 17:55 | 4.25132 | 73.53109 | 1049 ft | 204 kts | 359° |
| 2026-04-26 17:55 | 4.26594 | 73.53107 | 1175 ft | 217 kts | 359° |
| 2026-04-26 17:55 | 4.28170 | 73.53102 | 1297 ft | 236 kts | 359° |
| 2026-04-26 17:55 | 4.29877 | 73.53097 | 1431 ft | 254 kts | 359° |
| 2026-04-26 17:56 | 4.31676 | 73.53093 | 1775 ft | 261 kts | 359° |
| 2026-04-26 17:56 | 4.35326 | 73.53088 | 2719 ft | 263 kts | 360° |
| 2026-04-26 17:57 | 4.39008 | 73.53188 | 3583 ft | 267 kts | 13° |
| 2026-04-26 17:57 | 4.40660 | 73.53968 | 3983 ft | 269 kts | 40° |
| 2026-04-26 17:57 | 4.41815 | 73.55428 | 4395 ft | 271 kts | 66° |
| 2026-04-26 17:57 | 4.42214 | 73.57264 | 4801 ft | 272 kts | 89° |
| 2026-04-26 17:58 | 4.41596 | 73.62892 | 5972 ft | 277 kts | 123° |
| 2026-04-26 17:59 | 4.38346 | 73.64769 | 6677 ft | 283 kts | 176° |
| 2026-04-26 17:59 | 4.36363 | 73.64794 | 7006 ft | 286 kts | 179° |
| 2026-04-26 17:59 | 4.34369 | 73.64792 | 7345 ft | 287 kts | 179° |
| 2026-04-26 17:59 | 4.32365 | 73.64782 | 7684 ft | 289 kts | 179° |
| 2026-04-26 18:00 | 4.30350 | 73.64773 | 8020 ft | 290 kts | 179° |
| 2026-04-26 18:00 | 4.28327 | 73.64768 | 8345 ft | 291 kts | 179° |
| 2026-04-26 18:00 | 4.26292 | 73.64766 | 8663 ft | 293 kts | 179° |
| 2026-04-26 18:00 | 4.24255 | 73.64767 | 8969 ft | 294 kts | 179° |
| 2026-04-26 18:01 | 4.22198 | 73.64770 | 9278 ft | 296 kts | 179° |
| 2026-04-26 18:01 | 4.20136 | 73.64774 | 9585 ft | 297 kts | 178° |
| 2026-04-26 18:01 | 4.18093 | 73.64778 | 9864 ft | 298 kts | 178° |
| 2026-04-26 18:01 | 4.15972 | 73.64779 | 10007 ft | 304 kts | 179° |
| 2026-04-26 18:02 | 4.13854 | 73.64782 | 10127 ft | 317 kts | 179° |
| 2026-04-26 18:02 | 4.13102 | 73.64783 | 10167 ft | 323 kts | 179° |
| 2026-04-26 18:02 | 4.09210 | 73.64789 | 10615 ft | 344 kts | 179° |
| 2026-04-26 18:02 | 4.06800 | 73.64793 | 11113 ft | 348 kts | 178° |
| 2026-04-26 18:03 | 4.04362 | 73.64796 | 11639 ft | 351 kts | 178° |
| 2026-04-26 18:03 | 4.01906 | 73.64799 | 12150 ft | 354 kts | 178° |
| 2026-04-26 18:03 | 3.99430 | 73.64802 | 12662 ft | 357 kts | 178° |
| 2026-04-26 18:03 | 3.96934 | 73.64805 | 13170 ft | 360 kts | 178° |
| 2026-04-26 18:04 | 3.94417 | 73.64808 | 13664 ft | 363 kts | 178° |
| 2026-04-26 18:04 | 3.91877 | 73.64809 | 14093 ft | 366 kts | 178° |
| 2026-04-26 18:04 | 3.89371 | 73.65187 | 14497 ft | 365 kts | 156° |
| 2026-04-26 18:05 | 3.85327 | 73.68208 | 15321 ft | 366 kts | 136° |
| 2026-04-26 18:05 | 3.83410 | 73.69905 | 15748 ft | 369 kts | 136° |
| 2026-04-26 18:05 | 3.81480 | 73.71616 | 16168 ft | 372 kts | 136° |
| 2026-04-26 18:05 | 3.79558 | 73.73320 | 16583 ft | 375 kts | 136° |
| 2026-04-26 18:06 | 3.77764 | 73.75255 | 16987 ft | 375 kts | 122° |
| 2026-04-26 18:06 | 3.76585 | 73.77579 | 17385 ft | 376 kts | 112° |
| 2026-04-26 18:06 | 3.75459 | 73.79916 | 17803 ft | 379 kts | 115° |
| 2026-04-26 18:06 | 3.74216 | 73.82254 | 18196 ft | 382 kts | 117° |
| 2026-04-26 18:07 | 3.72923 | 73.84586 | 18559 ft | 384 kts | 117° |
| 2026-04-26 18:07 | 3.71617 | 73.86930 | 18934 ft | 386 kts | 117° |
| 2026-04-26 18:07 | 3.70321 | 73.89291 | 19313 ft | 388 kts | 117° |
| 2026-04-26 18:07 | 3.69886 | 73.90093 | 19441 ft | 388 kts | 117° |
| 2026-04-26 18:08 | 3.67764 | 73.94076 | 20079 ft | 391 kts | 116° |
| 2026-04-26 18:08 | 3.66495 | 73.96498 | 20445 ft | 393 kts | 116° |
| 2026-04-26 18:08 | 3.65226 | 73.98927 | 20819 ft | 395 kts | 116° |
| 2026-04-26 18:08 | 3.63947 | 74.01368 | 21185 ft | 396 kts | 116° |
| 2026-04-26 18:09 | 3.62663 | 74.03817 | 21564 ft | 398 kts | 116° |
| 2026-04-26 18:09 | 3.61375 | 74.06271 | 21932 ft | 399 kts | 116° |
| 2026-04-26 18:09 | 3.60076 | 74.08739 | 22289 ft | 401 kts | 117° |
| 2026-04-26 18:09 | 3.58541 | 74.11078 | 22630 ft | 404 kts | 128° |
| 2026-04-26 18:10 | 3.56600 | 74.13121 | 22971 ft | 407 kts | 135° |
| 2026-04-26 18:10 | 3.54545 | 74.15083 | 23304 ft | 409 kts | 135° |
| 2026-04-26 18:10 | 3.52486 | 74.17054 | 23609 ft | 410 kts | 135° |
| 2026-04-26 18:10 | 3.51118 | 74.18366 | 23806 ft | 411 kts | 135° |
| 2026-04-26 18:11 | 3.49054 | 74.20350 | 24083 ft | 413 kts | 135° |
| 2026-04-26 18:11 | 3.46982 | 74.22342 | 24362 ft | 414 kts | 135° |
| 2026-04-26 18:11 | 3.44900 | 74.24340 | 24645 ft | 415 kts | 135° |
| 2026-04-26 18:11 | 3.42813 | 74.26341 | 24921 ft | 416 kts | 135° |
| 2026-04-26 18:12 | 3.40719 | 74.28350 | 25196 ft | 418 kts | 135° |
| 2026-04-26 18:12 | 3.38621 | 74.30364 | 25475 ft | 419 kts | 135° |
| 2026-04-26 18:12 | 3.36518 | 74.32388 | 25751 ft | 420 kts | 135° |
| 2026-04-26 18:12 | 3.34412 | 74.34416 | 26023 ft | 421 kts | 135° |
| 2026-04-26 18:13 | 3.32294 | 74.36453 | 26291 ft | 422 kts | 135° |
| 2026-04-26 18:13 | 3.30173 | 74.38495 | 26566 ft | 423 kts | 135° |
| 2026-04-26 18:13 | 3.28047 | 74.40538 | 26826 ft | 424 kts | 135° |
| 2026-04-26 18:13 | 3.26634 | 74.41895 | 26995 ft | 425 kts | 135° |
| 2026-04-26 18:14 | 3.23775 | 74.44634 | 27331 ft | 427 kts | 135° |
| 2026-04-26 18:14 | 3.21653 | 74.46666 | 27570 ft | 428 kts | 135° |
| 2026-04-26 18:14 | 3.19475 | 74.48754 | 27815 ft | 429 kts | 135° |
| 2026-04-26 18:14 | 3.17343 | 74.50798 | 28061 ft | 430 kts | 135° |
| 2026-04-26 18:15 | 3.15179 | 74.52874 | 28318 ft | 432 kts | 135° |
| 2026-04-26 18:15 | 3.13006 | 74.54959 | 28578 ft | 433 kts | 135° |
| 2026-04-26 18:15 | 3.10830 | 74.57047 | 28833 ft | 434 kts | 135° |
| 2026-04-26 18:15 | 3.08651 | 74.59142 | 29120 ft | 435 kts | 135° |
| 2026-04-26 18:16 | 3.06468 | 74.61242 | 29501 ft | 433 kts | 135° |
| 2026-04-26 18:16 | 3.02130 | 74.65405 | 30218 ft | 431 kts | 136° |
| 2026-04-26 18:16 | 2.99969 | 74.67475 | 30530 ft | 430 kts | 136° |
| 2026-04-26 18:17 | 2.97813 | 74.69541 | 30842 ft | 429 kts | 136° |
| 2026-04-26 18:17 | 2.95664 | 74.71606 | 31158 ft | 428 kts | 136° |
| 2026-04-26 18:17 | 2.93519 | 74.73665 | 31472 ft | 427 kts | 136° |
| 2026-04-26 18:17 | 2.91371 | 74.75723 | 31782 ft | 426 kts | 136° |
| 2026-04-26 18:18 | 2.89254 | 74.77749 | 32097 ft | 426 kts | 136° |
| 2026-04-26 18:18 | 2.87119 | 74.79795 | 32421 ft | 425 kts | 136° |
| 2026-04-26 18:18 | 2.84990 | 74.81838 | 32751 ft | 424 kts | 136° |
| 2026-04-26 18:18 | 2.82866 | 74.83877 | 33077 ft | 423 kts | 136° |
| 2026-04-26 18:19 | 2.80745 | 74.85913 | 33387 ft | 422 kts | 136° |
| 2026-04-26 18:19 | 2.78628 | 74.87945 | 33697 ft | 421 kts | 136° |
| 2026-04-26 18:19 | 2.76517 | 74.89970 | 33982 ft | 420 kts | 136° |
| 2026-04-26 18:19 | 2.74409 | 74.91992 | 34250 ft | 419 kts | 136° |
| 2026-04-26 18:20 | 2.72307 | 74.94003 | 34516 ft | 418 kts | 137° |
| 2026-04-26 18:20 | 2.70210 | 74.96005 | 34774 ft | 417 kts | 137° |
| 2026-04-26 18:20 | 2.66718 | 74.99340 | 34898 ft | 420 kts | 137° |
| 2026-04-26 18:21 | 2.61707 | 75.04144 | 34899 ft | 432 kts | 136° |
| 2026-04-26 18:21 | 2.57352 | 75.08324 | 34898 ft | 435 kts | 136° |
| 2026-04-26 18:22 | 2.52971 | 75.12516 | 34898 ft | 436 kts | 136° |
| 2026-04-26 18:22 | 2.48588 | 75.16718 | 34898 ft | 436 kts | 136° |
| 2026-04-26 18:23 | 2.44233 | 75.20894 | 34897 ft | 437 kts | 136° |
| 2026-04-26 18:23 | 2.39844 | 75.25095 | 34899 ft | 437 kts | 136° |
| 2026-04-26 18:24 | 2.35448 | 75.29302 | 34903 ft | 437 kts | 136° |
| 2026-04-26 18:24 | 2.31062 | 75.33505 | 34903 ft | 437 kts | 136° |
| 2026-04-26 18:25 | 2.26674 | 75.37706 | 34904 ft | 437 kts | 136° |
| 2026-04-26 18:25 | 2.22290 | 75.41909 | 34904 ft | 437 kts | 136° |
| 2026-04-26 18:26 | 2.17891 | 75.46122 | 34896 ft | 437 kts | 136° |
| 2026-04-26 18:26 | 2.13529 | 75.50301 | 34894 ft | 438 kts | 136° |
| 2026-04-26 18:27 | 2.09132 | 75.54519 | 34891 ft | 438 kts | 136° |
| 2026-04-26 18:27 | 2.04728 | 75.58725 | 34892 ft | 438 kts | 136° |
| 2026-04-26 18:28 | 2.00318 | 75.62944 | 34894 ft | 438 kts | 136° |
| 2026-04-26 18:28 | 1.95906 | 75.67160 | 34895 ft | 438 kts | 136° |
| 2026-04-26 18:29 | 1.91502 | 75.71372 | 34896 ft | 438 kts | 136° |
| 2026-04-26 18:29 | 1.87100 | 75.75604 | 34896 ft | 438 kts | 136° |
| 2026-04-26 18:30 | 1.82698 | 75.79820 | 34898 ft | 438 kts | 136° |
| 2026-04-26 18:30 | 1.78311 | 75.84007 | 34897 ft | 439 kts | 136° |
| 2026-04-26 18:31 | 1.73898 | 75.88220 | 34897 ft | 439 kts | 136° |
| 2026-04-26 18:31 | 1.69488 | 75.92440 | 34896 ft | 439 kts | 136° |
| 2026-04-26 18:32 | 1.65082 | 75.96663 | 34895 ft | 439 kts | 136° |
| 2026-04-26 18:32 | 1.60668 | 76.00888 | 34895 ft | 439 kts | 136° |
| 2026-04-26 18:33 | 1.56255 | 76.05111 | 34895 ft | 439 kts | 136° |
| 2026-04-26 18:33 | 1.51847 | 76.09322 | 34895 ft | 439 kts | 136° |
| 2026-04-26 18:34 | 1.47430 | 76.13551 | 34887 ft | 439 kts | 136° |
| 2026-04-26 18:34 | 1.43044 | 76.17745 | 34883 ft | 439 kts | 136° |
| 2026-04-26 18:35 | 1.38627 | 76.21970 | 34885 ft | 440 kts | 136° |
| 2026-04-26 18:35 | 1.34202 | 76.26195 | 34885 ft | 440 kts | 136° |
| 2026-04-26 18:36 | 1.29779 | 76.30421 | 34886 ft | 440 kts | 136° |
| 2026-04-26 18:36 | 1.25353 | 76.34651 | 34886 ft | 440 kts | 136° |
| 2026-04-26 18:37 | 1.20929 | 76.38890 | 34885 ft | 440 kts | 136° |
| 2026-04-26 18:37 | 1.16505 | 76.43123 | 34886 ft | 440 kts | 136° |
| 2026-04-26 18:38 | 1.12073 | 76.47350 | 34887 ft | 440 kts | 136° |
| 2026-04-26 18:38 | 1.07637 | 76.51580 | 34877 ft | 441 kts | 136° |
| 2026-04-26 18:39 | 1.03206 | 76.55827 | 34876 ft | 442 kts | 136° |
| 2026-04-26 18:39 | 0.98768 | 76.60068 | 34877 ft | 442 kts | 136° |
| 2026-04-26 18:40 | 0.94322 | 76.64322 | 34885 ft | 442 kts | 136° |
| 2026-04-26 18:40 | 0.89872 | 76.68579 | 34886 ft | 442 kts | 136° |
| 2026-04-26 18:41 | 0.85456 | 76.72798 | 34885 ft | 442 kts | 136° |
| 2026-04-26 18:41 | 0.81003 | 76.77051 | 34886 ft | 442 kts | 136° |
| 2026-04-26 18:42 | 0.76561 | 76.81299 | 34885 ft | 442 kts | 136° |
| 2026-04-26 18:42 | 0.72107 | 76.85552 | 34883 ft | 443 kts | 136° |
| 2026-04-26 18:43 | 0.67654 | 76.89802 | 34882 ft | 443 kts | 136° |
| 2026-04-26 18:43 | 0.63202 | 76.94057 | 34883 ft | 443 kts | 136° |
| 2026-04-26 18:44 | 0.58741 | 76.98317 | 34885 ft | 443 kts | 136° |
| 2026-04-26 18:44 | 0.54291 | 77.02574 | 34886 ft | 443 kts | 136° |
| 2026-04-26 18:45 | 0.49837 | 77.06837 | 34887 ft | 443 kts | 136° |
| 2026-04-26 18:45 | 0.45400 | 77.11067 | 34887 ft | 443 kts | 136° |
| 2026-04-26 18:46 | 0.40917 | 77.15356 | 34888 ft | 443 kts | 136° |
| 2026-04-26 18:46 | 0.36463 | 77.19616 | 34888 ft | 443 kts | 136° |
| 2026-04-26 18:47 | 0.31998 | 77.23879 | 34889 ft | 443 kts | 136° |
| 2026-04-26 18:47 | 0.27576 | 77.28116 | 34889 ft | 443 kts | 136° |
| 2026-04-26 18:48 | 0.23115 | 77.32375 | 34889 ft | 444 kts | 136° |
| 2026-04-26 18:48 | 0.18653 | 77.36639 | 34889 ft | 444 kts | 136° |
| 2026-04-26 18:49 | 0.14189 | 77.40902 | 34889 ft | 444 kts | 136° |
| 2026-04-26 18:49 | 0.09725 | 77.45159 | 34888 ft | 444 kts | 136° |
| 2026-04-26 18:50 | 0.05256 | 77.49419 | 34891 ft | 444 kts | 136° |
| 2026-04-26 18:50 | 0.00800 | 77.53683 | 34895 ft | 444 kts | 136° |
| 2026-04-26 18:51 | -0.03656 | 77.57952 | 34893 ft | 444 kts | 136° |
| 2026-04-26 18:51 | -0.08092 | 77.62186 | 34893 ft | 444 kts | 136° |
| 2026-04-26 18:52 | -0.12552 | 77.66446 | 34892 ft | 444 kts | 136° |
| 2026-04-26 18:52 | -0.17011 | 77.70711 | 34891 ft | 444 kts | 136° |
| 2026-04-26 18:53 | -0.21471 | 77.74974 | 34887 ft | 444 kts | 136° |
| 2026-04-26 18:53 | -0.25942 | 77.79233 | 34888 ft | 444 kts | 136° |
| 2026-04-26 18:54 | -0.30402 | 77.83496 | 34892 ft | 444 kts | 136° |
| 2026-04-26 18:54 | -0.34864 | 77.87767 | 34891 ft | 444 kts | 136° |
| 2026-04-26 18:55 | -0.39330 | 77.92035 | 34883 ft | 444 kts | 136° |
| 2026-04-26 18:55 | -0.43798 | 77.96302 | 34883 ft | 445 kts | 136° |
| 2026-04-26 18:56 | -0.48274 | 78.00588 | 34884 ft | 445 kts | 136° |
| 2026-04-26 18:56 | -0.52756 | 78.04860 | 34885 ft | 445 kts | 136° |
| 2026-04-26 18:57 | -0.55734 | 78.07689 | 34886 ft | 445 kts | 136° |
| 2026-04-26 18:57 | -0.61707 | 78.13370 | 34887 ft | 446 kts | 136° |
| 2026-04-26 18:58 | -0.66224 | 78.17671 | 34888 ft | 446 kts | 136° |
| 2026-04-26 18:58 | -0.70677 | 78.21919 | 34889 ft | 446 kts | 136° |
| 2026-04-26 18:59 | -0.75163 | 78.26194 | 34884 ft | 446 kts | 136° |
| 2026-04-26 18:59 | -0.79655 | 78.30464 | 34885 ft | 446 kts | 136° |
| 2026-04-26 19:00 | -0.84149 | 78.34739 | 34889 ft | 446 kts | 136° |
| 2026-04-26 19:00 | -0.87891 | 78.38297 | 34889 ft | 446 kts | 136° |
| 2026-04-26 19:01 | -0.92380 | 78.42571 | 34890 ft | 446 kts | 136° |
| 2026-04-26 19:01 | -0.96866 | 78.46850 | 34889 ft | 446 kts | 136° |
| 2026-04-26 19:02 | -1.01359 | 78.51134 | 34889 ft | 446 kts | 136° |
| 2026-04-26 19:02 | -1.05090 | 78.54692 | 34887 ft | 446 kts | 136° |
| 2026-04-26 19:03 | -1.10335 | 78.59690 | 34889 ft | 446 kts | 136° |
| 2026-04-26 19:03 | -1.14832 | 78.63976 | 34886 ft | 446 kts | 136° |
| 2026-04-26 19:04 | -1.19328 | 78.68253 | 34882 ft | 447 kts | 136° |
| 2026-04-26 19:04 | -1.23822 | 78.72539 | 34876 ft | 446 kts | 136° |
| 2026-04-26 19:05 | -1.30562 | 78.78964 | 34880 ft | 446 kts | 136° |
| 2026-04-26 19:06 | -1.35062 | 78.83242 | 34883 ft | 446 kts | 136° |
| 2026-04-26 19:06 | -1.39526 | 78.87502 | 34884 ft | 446 kts | 136° |
| 2026-04-26 19:07 | -1.44023 | 78.91792 | 34887 ft | 447 kts | 136° |
| 2026-04-26 19:07 | -1.48519 | 78.96078 | 34888 ft | 447 kts | 136° |
| 2026-04-26 19:08 | -1.53015 | 79.00366 | 34888 ft | 447 kts | 136° |
| 2026-04-26 19:08 | -1.57513 | 79.04651 | 34887 ft | 447 kts | 136° |
| 2026-04-26 19:09 | -1.62015 | 79.08940 | 34892 ft | 446 kts | 136° |
| 2026-04-26 19:09 | -1.66503 | 79.13219 | 34888 ft | 446 kts | 136° |
| 2026-04-26 19:10 | -1.70995 | 79.17497 | 34884 ft | 446 kts | 136° |
| 2026-04-26 19:10 | -1.75481 | 79.21774 | 34882 ft | 445 kts | 136° |
| 2026-04-26 19:11 | -1.79965 | 79.26048 | 34883 ft | 445 kts | 136° |
| 2026-04-26 19:11 | -1.84451 | 79.30324 | 34881 ft | 445 kts | 136° |
| 2026-04-26 19:12 | -1.88907 | 79.34578 | 34881 ft | 445 kts | 136° |
| 2026-04-26 19:12 | -1.93383 | 79.38862 | 34882 ft | 445 kts | 136° |
| 2026-04-26 19:13 | -1.97867 | 79.43142 | 34881 ft | 445 kts | 136° |
| 2026-04-26 19:13 | -2.02343 | 79.47411 | 34882 ft | 445 kts | 136° |
| 2026-04-26 19:14 | -2.06824 | 79.51684 | 34881 ft | 445 kts | 136° |
| 2026-04-26 19:14 | -2.11304 | 79.55954 | 34880 ft | 445 kts | 136° |
| 2026-04-26 19:15 | -2.15784 | 79.60225 | 34880 ft | 445 kts | 136° |
| 2026-04-26 19:15 | -2.20220 | 79.64479 | 34880 ft | 445 kts | 136° |
| 2026-04-26 19:16 | -2.24683 | 79.68759 | 34880 ft | 445 kts | 136° |
| 2026-04-26 19:16 | -2.29163 | 79.73041 | 34862 ft | 446 kts | 136° |
| 2026-04-26 19:17 | -2.33657 | 79.77327 | 34858 ft | 447 kts | 136° |
| 2026-04-26 19:17 | -2.38193 | 79.81657 | 34852 ft | 449 kts | 136° |
| 2026-04-26 19:18 | -2.42692 | 79.85958 | 34847 ft | 451 kts | 136° |
| 2026-04-26 19:18 | -2.47228 | 79.90304 | 34851 ft | 452 kts | 136° |
| 2026-04-26 19:19 | -2.51780 | 79.94656 | 34854 ft | 453 kts | 136° |
| 2026-04-26 19:19 | -2.56338 | 79.99011 | 34860 ft | 453 kts | 136° |
| 2026-04-26 19:20 | -2.60900 | 80.03376 | 34867 ft | 454 kts | 136° |
| 2026-04-26 19:20 | -2.65464 | 80.07745 | 34875 ft | 454 kts | 136° |
| 2026-04-26 19:21 | -2.70033 | 80.12113 | 34873 ft | 454 kts | 136° |
| 2026-04-26 19:21 | -2.74562 | 80.16439 | 34873 ft | 453 kts | 136° |
| 2026-04-26 19:22 | -2.79119 | 80.20798 | 34874 ft | 453 kts | 136° |
| 2026-04-26 19:22 | -2.83669 | 80.25158 | 34873 ft | 453 kts | 136° |
| 2026-04-26 19:23 | -2.88229 | 80.29521 | 34873 ft | 453 kts | 136° |
| 2026-04-26 19:23 | -2.92784 | 80.33886 | 34874 ft | 453 kts | 136° |
| 2026-04-26 19:24 | -2.97346 | 80.38252 | 34874 ft | 453 kts | 136° |
| 2026-04-26 19:24 | -3.04190 | 80.44791 | 34874 ft | 454 kts | 135° |
| 2026-04-26 19:25 | -3.07987 | 80.48427 | 34879 ft | 454 kts | 135° |
| 2026-04-26 19:25 | -3.13313 | 80.53530 | 34879 ft | 454 kts | 135° |
| 2026-04-26 19:26 | -3.17867 | 80.57890 | 34881 ft | 453 kts | 136° |
| 2026-04-26 19:26 | -3.22417 | 80.62251 | 34880 ft | 452 kts | 135° |
| 2026-04-26 19:27 | -3.26962 | 80.66605 | 34875 ft | 452 kts | 136° |
| 2026-04-26 19:27 | -3.31507 | 80.70954 | 34874 ft | 452 kts | 136° |
| 2026-04-26 19:28 | -3.36051 | 80.75312 | 34875 ft | 452 kts | 135° |
| 2026-04-26 19:28 | -3.40557 | 80.79633 | 34873 ft | 452 kts | 135° |
| 2026-04-26 19:29 | -3.45100 | 80.83988 | 34872 ft | 452 kts | 136° |
| 2026-04-26 19:29 | -3.49602 | 80.88390 | 34871 ft | 451 kts | 130° |
| 2026-04-26 19:30 | -3.53047 | 80.93614 | 34871 ft | 450 kts | 119° |
| 2026-04-26 19:30 | -3.55623 | 80.98148 | 34870 ft | 450 kts | 120° |
| 2026-04-26 19:31 | -3.59252 | 81.04511 | 34866 ft | 451 kts | 120° |
| 2026-04-26 19:31 | -3.62356 | 81.09968 | 34868 ft | 451 kts | 120° |
| 2026-04-26 19:32 | -3.65465 | 81.15417 | 34871 ft | 451 kts | 120° |
| 2026-04-26 19:32 | -3.68581 | 81.20867 | 34867 ft | 451 kts | 120° |
| 2026-04-26 19:33 | -3.71675 | 81.26283 | 34866 ft | 451 kts | 120° |
| 2026-04-26 19:33 | -3.74783 | 81.31747 | 34865 ft | 452 kts | 120° |
| 2026-04-26 19:34 | -3.77894 | 81.37219 | 34850 ft | 453 kts | 120° |
| 2026-04-26 19:34 | -3.81020 | 81.42703 | 34850 ft | 453 kts | 120° |
| 2026-04-26 19:35 | -3.84149 | 81.48189 | 34854 ft | 454 kts | 120° |
| 2026-04-26 19:35 | -3.87280 | 81.53687 | 34857 ft | 454 kts | 120° |
| 2026-04-26 19:36 | -3.89350 | 81.57331 | 34860 ft | 454 kts | 120° |
| 2026-04-26 19:36 | -3.93527 | 81.64693 | 34863 ft | 455 kts | 120° |
| 2026-04-26 19:37 | -3.96641 | 81.70164 | 34863 ft | 455 kts | 120° |
| 2026-04-26 19:37 | -3.99784 | 81.75671 | 34861 ft | 456 kts | 120° |
| 2026-04-26 19:38 | -4.02919 | 81.81186 | 34860 ft | 456 kts | 120° |
| 2026-04-26 19:38 | -4.06063 | 81.86704 | 34861 ft | 456 kts | 120° |
| 2026-04-26 19:39 | -4.09203 | 81.92233 | 34861 ft | 456 kts | 120° |
| 2026-04-26 19:39 | -4.12336 | 81.97754 | 34862 ft | 456 kts | 120° |
| 2026-04-26 19:40 | -4.15478 | 82.03281 | 34857 ft | 456 kts | 120° |
| 2026-04-26 19:40 | -4.18619 | 82.08801 | 34860 ft | 456 kts | 120° |
| 2026-04-26 19:41 | -4.21765 | 82.14319 | 34863 ft | 456 kts | 120° |
| 2026-04-26 19:41 | -4.23841 | 82.17969 | 34862 ft | 456 kts | 120° |
| 2026-04-26 19:42 | -4.28030 | 82.25354 | 34863 ft | 456 kts | 120° |
| 2026-04-26 19:42 | -4.31144 | 82.30839 | 34862 ft | 455 kts | 120° |
| 2026-04-26 19:43 | -4.34276 | 82.36358 | 34862 ft | 455 kts | 120° |
| 2026-04-26 19:43 | -4.37402 | 82.41877 | 34862 ft | 455 kts | 120° |
| 2026-04-26 19:44 | -4.40538 | 82.47394 | 34854 ft | 456 kts | 120° |
| 2026-04-26 19:44 | -4.43663 | 82.52917 | 34854 ft | 456 kts | 120° |
| 2026-04-26 19:45 | -4.46803 | 82.58448 | 34856 ft | 456 kts | 120° |
| 2026-04-26 19:45 | -4.49921 | 82.63940 | 34854 ft | 456 kts | 120° |
| 2026-04-26 19:46 | -4.53049 | 82.69463 | 34849 ft | 456 kts | 120° |
| 2026-04-26 19:46 | -4.56186 | 82.74992 | 34851 ft | 456 kts | 120° |
| 2026-04-26 19:47 | -4.58278 | 82.78692 | 34855 ft | 456 kts | 120° |
| 2026-04-26 19:47 | -4.62438 | 82.86053 | 34850 ft | 456 kts | 120° |
| 2026-04-26 19:48 | -4.65578 | 82.91578 | 34847 ft | 456 kts | 120° |
| 2026-04-26 19:48 | -4.68188 | 82.96179 | 34845 ft | 456 kts | 120° |
| 2026-04-26 19:49 | -4.71323 | 83.01714 | 34849 ft | 457 kts | 120° |
| 2026-04-26 19:49 | -4.74462 | 83.07249 | 34845 ft | 457 kts | 120° |
| 2026-04-26 19:50 | -4.77594 | 83.12793 | 34848 ft | 457 kts | 120° |
| 2026-04-26 19:50 | -4.80722 | 83.18332 | 34853 ft | 456 kts | 120° |
| 2026-04-26 19:51 | -4.83854 | 83.23866 | 34852 ft | 456 kts | 120° |
| 2026-04-26 19:51 | -4.86984 | 83.29397 | 34847 ft | 456 kts | 120° |
| 2026-04-26 19:52 | -4.90108 | 83.34928 | 34849 ft | 456 kts | 120° |
| 2026-04-26 19:52 | -4.93234 | 83.40460 | 34837 ft | 456 kts | 120° |
| 2026-04-26 19:53 | -4.96358 | 83.45990 | 34843 ft | 456 kts | 120° |
| 2026-04-26 19:53 | -4.99487 | 83.51519 | 34842 ft | 456 kts | 120° |
| 2026-04-26 19:54 | -5.02592 | 83.57010 | 34848 ft | 456 kts | 120° |
| 2026-04-26 19:54 | -5.05720 | 83.62542 | 34850 ft | 456 kts | 120° |
| 2026-04-26 19:55 | -5.08836 | 83.68077 | 34845 ft | 455 kts | 120° |
| 2026-04-26 19:55 | -5.11947 | 83.73612 | 34845 ft | 455 kts | 120° |
| 2026-04-26 19:56 | -5.15074 | 83.79143 | 34847 ft | 455 kts | 120° |
| 2026-04-26 19:56 | -5.18209 | 83.84672 | 34846 ft | 455 kts | 120° |
| 2026-04-26 19:57 | -5.21331 | 83.90205 | 34850 ft | 455 kts | 120° |
| 2026-04-26 19:57 | -5.24455 | 83.95738 | 34852 ft | 455 kts | 120° |
| 2026-04-26 19:58 | -5.27553 | 84.01228 | 34851 ft | 454 kts | 120° |
| 2026-04-26 19:58 | -5.30656 | 84.06749 | 34853 ft | 454 kts | 120° |
| 2026-04-26 19:59 | -5.33756 | 84.12267 | 34848 ft | 454 kts | 120° |
| 2026-04-26 19:59 | -5.36863 | 84.17783 | 34850 ft | 454 kts | 120° |
| 2026-04-26 20:00 | -5.39970 | 84.23306 | 34849 ft | 454 kts | 120° |
| 2026-04-26 20:00 | -5.43077 | 84.28826 | 34849 ft | 454 kts | 120° |
| 2026-04-26 20:01 | -5.46183 | 84.34345 | 34858 ft | 454 kts | 120° |
| 2026-04-26 20:01 | -5.49283 | 84.39860 | 34860 ft | 454 kts | 120° |
| 2026-04-26 20:02 | -5.52386 | 84.45371 | 34861 ft | 453 kts | 120° |
| 2026-04-26 20:02 | -5.54969 | 84.49950 | 34860 ft | 453 kts | 120° |
| 2026-04-26 20:03 | -5.58596 | 84.56388 | 34855 ft | 453 kts | 120° |
| 2026-04-26 20:03 | -5.61691 | 84.61897 | 34855 ft | 453 kts | 120° |
| 2026-04-26 20:04 | -5.64785 | 84.67415 | 34861 ft | 453 kts | 120° |
| 2026-04-26 20:04 | -5.67876 | 84.72926 | 34863 ft | 453 kts | 120° |
| 2026-04-26 20:05 | -5.70966 | 84.78433 | 34861 ft | 453 kts | 120° |
| 2026-04-26 20:05 | -5.74062 | 84.83936 | 34860 ft | 453 kts | 120° |
| 2026-04-26 20:06 | -5.77138 | 84.89404 | 34855 ft | 453 kts | 120° |
| 2026-04-26 20:06 | -5.80227 | 84.94915 | 34857 ft | 453 kts | 120° |
| 2026-04-26 20:07 | -5.83313 | 85.00425 | 34854 ft | 453 kts | 120° |
| 2026-04-26 20:07 | -5.86404 | 85.05940 | 34853 ft | 453 kts | 120° |
| 2026-04-26 20:08 | -5.89502 | 85.11467 | 34838 ft | 454 kts | 120° |
| 2026-04-26 20:08 | -5.92612 | 85.17004 | 34840 ft | 456 kts | 120° |
| 2026-04-26 20:09 | -5.95727 | 85.22556 | 34841 ft | 457 kts | 120° |
| 2026-04-26 20:09 | -5.98841 | 85.28120 | 34844 ft | 457 kts | 120° |
| 2026-04-26 20:10 | -6.01953 | 85.33681 | 34848 ft | 457 kts | 120° |
| 2026-04-26 20:10 | -6.05072 | 85.39252 | 34851 ft | 457 kts | 120° |
| 2026-04-26 20:11 | -6.08194 | 85.44829 | 34854 ft | 458 kts | 120° |
| 2026-04-26 20:12 | -6.12886 | 85.53204 | 34846 ft | 459 kts | 120° |
| 2026-04-26 20:12 | -6.15999 | 85.58767 | 34846 ft | 460 kts | 120° |
| 2026-04-26 20:13 | -6.19128 | 85.64379 | 34851 ft | 460 kts | 119° |
| 2026-04-26 20:13 | -6.22266 | 85.69996 | 34850 ft | 461 kts | 120° |
| 2026-04-26 20:14 | -6.25404 | 85.75610 | 34851 ft | 461 kts | 119° |
| 2026-04-26 20:14 | -6.28547 | 85.81232 | 34853 ft | 461 kts | 120° |
| 2026-04-26 20:15 | -6.31668 | 85.86810 | 34857 ft | 461 kts | 120° |
| 2026-04-26 20:15 | -6.34803 | 85.92436 | 34858 ft | 461 kts | 119° |
| 2026-04-26 20:16 | -6.37937 | 85.98052 | 34856 ft | 461 kts | 120° |
| 2026-04-26 20:16 | -6.41069 | 86.03671 | 34857 ft | 461 kts | 119° |
| 2026-04-26 20:17 | -6.44198 | 86.09294 | 34860 ft | 461 kts | 119° |
| 2026-04-26 20:17 | -6.47332 | 86.14906 | 34856 ft | 461 kts | 120° |
| 2026-04-26 20:18 | -6.50462 | 86.20534 | 34851 ft | 461 kts | 120° |
| 2026-04-26 20:18 | -6.53594 | 86.26160 | 34851 ft | 461 kts | 120° |
| 2026-04-26 20:19 | -6.56745 | 86.31800 | 34848 ft | 462 kts | 120° |
| 2026-04-26 20:19 | -6.59888 | 86.37435 | 34848 ft | 462 kts | 120° |
| 2026-04-26 20:20 | -6.63029 | 86.43076 | 34853 ft | 462 kts | 120° |
| 2026-04-26 20:20 | -6.66164 | 86.48721 | 34852 ft | 462 kts | 120° |
| 2026-04-26 20:21 | -6.69285 | 86.54339 | 34854 ft | 462 kts | 120° |
| 2026-04-26 20:21 | -6.72443 | 86.60027 | 34860 ft | 462 kts | 120° |
| 2026-04-26 20:22 | -6.75564 | 86.65627 | 34862 ft | 462 kts | 120° |
| 2026-04-26 20:22 | -6.78706 | 86.71265 | 34862 ft | 462 kts | 120° |
| 2026-04-26 20:23 | -6.81840 | 86.76913 | 34863 ft | 462 kts | 120° |
| 2026-04-26 20:23 | -6.84966 | 86.82555 | 34860 ft | 462 kts | 120° |
| 2026-04-26 20:24 | -6.88098 | 86.88199 | 34863 ft | 461 kts | 120° |
| 2026-04-26 20:24 | -6.91231 | 86.93835 | 34862 ft | 461 kts | 120° |
| 2026-04-26 20:25 | -6.94366 | 86.99472 | 34864 ft | 461 kts | 120° |
| 2026-04-26 20:25 | -6.97470 | 87.05072 | 34867 ft | 461 kts | 120° |
| 2026-04-26 20:26 | -7.00578 | 87.10701 | 34870 ft | 460 kts | 120° |
| 2026-04-26 20:26 | -7.03694 | 87.16327 | 34869 ft | 460 kts | 120° |
| 2026-04-26 20:27 | -7.06815 | 87.21950 | 34867 ft | 460 kts | 120° |
| 2026-04-26 20:27 | -7.09934 | 87.27575 | 34866 ft | 460 kts | 120° |
| 2026-04-26 20:28 | -7.13053 | 87.33204 | 34866 ft | 460 kts | 120° |
| 2026-04-26 20:28 | -7.16166 | 87.38833 | 34868 ft | 460 kts | 120° |
| 2026-04-26 20:29 | -7.19272 | 87.44454 | 34870 ft | 459 kts | 120° |
| 2026-04-26 20:29 | -7.22377 | 87.50071 | 34869 ft | 459 kts | 120° |
| 2026-04-26 20:30 | -7.25480 | 87.55695 | 34865 ft | 459 kts | 120° |
| 2026-04-26 20:30 | -7.28548 | 87.61254 | 34865 ft | 459 kts | 120° |
| 2026-04-26 20:31 | -7.31661 | 87.66882 | 34863 ft | 459 kts | 120° |
| 2026-04-26 20:31 | -7.34770 | 87.72498 | 34866 ft | 459 kts | 120° |
| 2026-04-26 20:32 | -7.37876 | 87.78117 | 34865 ft | 459 kts | 120° |
| 2026-04-26 20:32 | -7.40971 | 87.83740 | 34866 ft | 459 kts | 120° |
| 2026-04-26 20:33 | -7.44060 | 87.89366 | 34865 ft | 459 kts | 120° |
| 2026-04-26 20:33 | -7.47137 | 87.94955 | 34864 ft | 459 kts | 120° |
| 2026-04-26 20:34 | -7.50239 | 88.00568 | 34865 ft | 459 kts | 120° |
| 2026-04-26 20:34 | -7.53340 | 88.06181 | 34865 ft | 459 kts | 120° |
| 2026-04-26 20:35 | -7.56432 | 88.11799 | 34867 ft | 458 kts | 120° |
| 2026-04-26 20:35 | -7.59519 | 88.17414 | 34870 ft | 457 kts | 119° |
| 2026-04-26 20:36 | -7.62605 | 88.23018 | 34875 ft | 457 kts | 119° |
| 2026-04-26 20:36 | -7.65685 | 88.28613 | 34875 ft | 456 kts | 119° |
| 2026-04-26 20:37 | -7.68755 | 88.34203 | 34873 ft | 456 kts | 119° |
| 2026-04-26 20:37 | -7.71304 | 88.38852 | 34871 ft | 455 kts | 119° |
| 2026-04-26 20:38 | -7.74376 | 88.44434 | 34871 ft | 455 kts | 119° |
| 2026-04-26 20:38 | -7.77450 | 88.50021 | 34870 ft | 455 kts | 119° |
| 2026-04-26 20:39 | -7.80517 | 88.55607 | 34865 ft | 455 kts | 119° |
| 2026-04-26 20:39 | -7.83581 | 88.61190 | 34866 ft | 455 kts | 119° |
| 2026-04-26 20:40 | -7.86637 | 88.66780 | 34866 ft | 455 kts | 119° |
| 2026-04-26 20:40 | -7.89706 | 88.72366 | 34868 ft | 455 kts | 119° |
| 2026-04-26 20:41 | -7.92776 | 88.77954 | 34862 ft | 455 kts | 119° |
| 2026-04-26 20:41 | -7.95835 | 88.83545 | 34863 ft | 455 kts | 119° |
| 2026-04-26 20:42 | -7.98890 | 88.89142 | 34850 ft | 456 kts | 119° |
| 2026-04-26 20:42 | -8.01961 | 88.94754 | 34842 ft | 457 kts | 119° |
| 2026-04-26 20:43 | -8.05047 | 89.00375 | 34843 ft | 458 kts | 119° |
| 2026-04-26 20:43 | -8.08129 | 89.06017 | 34847 ft | 459 kts | 119° |
| 2026-04-26 20:44 | -8.11215 | 89.11657 | 34847 ft | 459 kts | 119° |
| 2026-04-26 20:44 | -8.14290 | 89.17267 | 34852 ft | 460 kts | 119° |
| 2026-04-26 20:45 | -8.17378 | 89.22915 | 34860 ft | 460 kts | 119° |
| 2026-04-26 20:45 | -8.20472 | 89.28578 | 34863 ft | 460 kts | 119° |
| 2026-04-26 20:46 | -8.23562 | 89.34232 | 34858 ft | 460 kts | 119° |
| 2026-04-26 20:46 | -8.26649 | 89.39893 | 34859 ft | 460 kts | 119° |
| 2026-04-26 20:47 | -8.29730 | 89.45550 | 34863 ft | 460 kts | 118° |
| 2026-04-26 20:47 | -8.32813 | 89.51213 | 34863 ft | 460 kts | 119° |
| 2026-04-26 20:48 | -8.35910 | 89.56880 | 34851 ft | 461 kts | 118° |
| 2026-04-26 20:48 | -8.39006 | 89.62560 | 34843 ft | 462 kts | 118° |
| 2026-04-26 20:49 | -8.42107 | 89.68268 | 34835 ft | 464 kts | 118° |
| 2026-04-26 20:49 | -8.45199 | 89.73946 | 34842 ft | 464 kts | 118° |
| 2026-04-26 20:50 | -8.48316 | 89.79666 | 34849 ft | 465 kts | 118° |
| 2026-04-26 20:50 | -8.51432 | 89.85391 | 34850 ft | 465 kts | 118° |
| 2026-04-26 20:51 | -8.54543 | 89.91118 | 34852 ft | 465 kts | 118° |
| 2026-04-26 20:51 | -8.57653 | 89.96848 | 34848 ft | 465 kts | 118° |
| 2026-04-26 20:52 | -8.60763 | 90.02580 | 34850 ft | 465 kts | 118° |
| 2026-04-26 20:52 | -8.63875 | 90.08315 | 34849 ft | 465 kts | 118° |
| 2026-04-26 20:53 | -8.66991 | 90.14053 | 34839 ft | 466 kts | 118° |
| 2026-04-26 20:53 | -8.70109 | 90.19797 | 34846 ft | 466 kts | 118° |
| 2026-04-26 20:54 | -8.73229 | 90.25537 | 34844 ft | 466 kts | 118° |
| 2026-04-26 20:54 | -8.76350 | 90.31296 | 34833 ft | 467 kts | 118° |
| 2026-04-26 20:55 | -8.79467 | 90.37071 | 34837 ft | 468 kts | 118° |
| 2026-04-26 20:55 | -8.82588 | 90.42853 | 34838 ft | 468 kts | 118° |
| 2026-04-26 20:56 | -8.85727 | 90.48637 | 34840 ft | 469 kts | 119° |
| 2026-04-26 20:56 | -8.88847 | 90.54390 | 34845 ft | 469 kts | 118° |
| 2026-04-26 20:57 | -8.91982 | 90.60179 | 34846 ft | 469 kts | 119° |
| 2026-04-26 20:57 | -8.95117 | 90.65977 | 34845 ft | 470 kts | 118° |
| 2026-04-26 20:58 | -8.98247 | 90.71779 | 34855 ft | 469 kts | 118° |
| 2026-04-26 20:58 | -9.01387 | 90.77578 | 34848 ft | 470 kts | 118° |
| 2026-04-26 20:59 | -9.04527 | 90.83380 | 34842 ft | 470 kts | 118° |
| 2026-04-26 20:59 | -9.07663 | 90.89188 | 34850 ft | 470 kts | 118° |
| 2026-04-26 21:00 | -9.10788 | 90.95000 | 34839 ft | 471 kts | 118° |
| 2026-04-26 21:00 | -9.13924 | 91.00829 | 34841 ft | 472 kts | 118° |
| 2026-04-26 21:01 | -9.17065 | 91.06665 | 34848 ft | 472 kts | 118° |
| 2026-04-26 21:01 | -9.20208 | 91.12499 | 34843 ft | 472 kts | 118° |
| 2026-04-26 21:02 | -9.23334 | 91.18302 | 34856 ft | 472 kts | 118° |
| 2026-04-26 21:02 | -9.26465 | 91.24125 | 34862 ft | 470 kts | 118° |
| 2026-04-26 21:03 | -9.29591 | 91.29942 | 34856 ft | 470 kts | 118° |
| 2026-04-26 21:03 | -9.32709 | 91.35760 | 34861 ft | 470 kts | 118° |
| 2026-04-26 21:04 | -9.35828 | 91.41564 | 34856 ft | 469 kts | 118° |
| 2026-04-26 21:04 | -9.38952 | 91.47373 | 34851 ft | 469 kts | 118° |
| 2026-04-26 21:05 | -9.42069 | 91.53180 | 34849 ft | 469 kts | 119° |
| 2026-04-26 21:05 | -9.45185 | 91.58987 | 34843 ft | 470 kts | 119° |
| 2026-04-26 21:06 | -9.48310 | 91.64807 | 34832 ft | 471 kts | 118° |
| 2026-04-26 21:06 | -9.51433 | 91.70641 | 34833 ft | 472 kts | 118° |
| 2026-04-26 21:07 | -9.54565 | 91.76497 | 34837 ft | 472 kts | 118° |
| 2026-04-26 21:07 | -9.57700 | 91.82350 | 34840 ft | 473 kts | 119° |
| 2026-04-26 21:08 | -9.60846 | 91.88202 | 34848 ft | 473 kts | 118° |
| 2026-04-26 21:08 | -9.63963 | 91.94021 | 34848 ft | 473 kts | 118° |
| 2026-04-26 21:09 | -9.67094 | 91.99893 | 34849 ft | 473 kts | 118° |
| 2026-04-26 21:09 | -9.70224 | 92.05759 | 34854 ft | 473 kts | 118° |
| 2026-04-26 21:10 | -9.73358 | 92.11630 | 34855 ft | 473 kts | 118° |
| 2026-04-26 21:10 | -9.76490 | 92.17497 | 34855 ft | 473 kts | 118° |
| 2026-04-26 21:11 | -9.79621 | 92.23360 | 34855 ft | 473 kts | 118° |
| 2026-04-26 21:11 | -9.82750 | 92.29228 | 34859 ft | 473 kts | 120° |
| 2026-04-26 21:12 | -9.85862 | 92.35059 | 34852 ft | 473 kts | 119° |
| 2026-04-26 21:12 | -9.88993 | 92.40936 | 34851 ft | 474 kts | 119° |
| 2026-04-26 21:13 | -9.92123 | 92.46819 | 34854 ft | 474 kts | 119° |
| 2026-04-26 21:13 | -9.95255 | 92.52718 | 34854 ft | 474 kts | 119° |
| 2026-04-26 21:14 | -9.98389 | 92.58600 | 34852 ft | 474 kts | 119° |
| 2026-04-26 21:14 | -10.01529 | 92.64480 | 34855 ft | 474 kts | 119° |
| 2026-04-26 21:15 | -10.04657 | 92.70374 | 34859 ft | 474 kts | 120° |
| 2026-04-26 21:15 | -10.07772 | 92.76260 | 34864 ft | 473 kts | 120° |
| 2026-04-26 21:16 | -10.10887 | 92.82140 | 34864 ft | 473 kts | 120° |
| 2026-04-26 21:16 | -10.14000 | 92.88009 | 34865 ft | 472 kts | 120° |
| 2026-04-26 21:17 | -10.17114 | 92.93876 | 34861 ft | 472 kts | 120° |
| 2026-04-26 21:17 | -10.20226 | 92.99741 | 34858 ft | 472 kts | 120° |
| 2026-04-26 21:18 | -10.23339 | 93.05617 | 34849 ft | 473 kts | 120° |
| 2026-04-26 21:18 | -10.26454 | 93.11491 | 34859 ft | 472 kts | 120° |
| 2026-04-26 21:19 | -10.29563 | 93.17357 | 34861 ft | 471 kts | 120° |
| 2026-04-26 21:19 | -10.32661 | 93.23222 | 34864 ft | 471 kts | 120° |
| 2026-04-26 21:20 | -10.35731 | 93.29048 | 34865 ft | 471 kts | 120° |
| 2026-04-26 21:20 | -10.38824 | 93.34914 | 34863 ft | 471 kts | 120° |
| 2026-04-26 21:21 | -10.41915 | 93.40772 | 34864 ft | 471 kts | 120° |
| 2026-04-26 21:21 | -10.45012 | 93.46630 | 34863 ft | 470 kts | 120° |
| 2026-04-26 21:22 | -10.48105 | 93.52490 | 34863 ft | 470 kts | 120° |
| 2026-04-26 21:22 | -10.51190 | 93.58356 | 34863 ft | 470 kts | 120° |
| 2026-04-26 21:23 | -10.55772 | 93.67052 | 36441 ft | 471 kts | 118° |
| 2026-04-26 21:23 | -10.57320 | 93.69985 | 34861 ft | 471 kts | 118° |
| 2026-04-26 21:23 | -10.58871 | 93.72926 | 34868 ft | 474 kts | 118° |
| 2026-04-26 21:24 | -10.61991 | 93.78856 | 34892 ft | 476 kts | 118° |
| 2026-04-26 21:24 | -10.64587 | 93.83799 | 34895 ft | 477 kts | 118° |
| 2026-04-26 21:25 | -10.67674 | 93.89822 | 34896 ft | 477 kts | 118° |
| 2026-04-26 21:25 | -10.70689 | 93.95834 | 34895 ft | 477 kts | 117° |
| 2026-04-26 21:26 | -10.73687 | 94.01802 | 34897 ft | 477 kts | 118° |
| 2026-04-26 21:26 | -10.76720 | 94.07808 | 34903 ft | 477 kts | 118° |
| 2026-04-26 21:27 | -10.79757 | 94.13818 | 34903 ft | 477 kts | 118° |
| 2026-04-26 21:27 | -10.82793 | 94.19824 | 34901 ft | 477 kts | 117° |
| 2026-04-26 21:28 | -10.85824 | 94.25832 | 34902 ft | 477 kts | 117° |
| 2026-04-26 21:28 | -10.88852 | 94.31840 | 34903 ft | 477 kts | 117° |
| 2026-04-26 21:29 | -10.91879 | 94.37845 | 34903 ft | 477 kts | 117° |
| 2026-04-26 21:29 | -10.94906 | 94.43856 | 34902 ft | 477 kts | 117° |
| 2026-04-26 21:30 | -10.97913 | 94.49831 | 34903 ft | 477 kts | 117° |
| 2026-04-26 21:30 | -11.00934 | 94.55843 | 34903 ft | 477 kts | 117° |
| 2026-04-26 21:31 | -11.03963 | 94.61856 | 34904 ft | 477 kts | 117° |
| 2026-04-26 21:31 | -11.06988 | 94.67869 | 34903 ft | 477 kts | 117° |
| 2026-04-26 21:32 | -11.10006 | 94.73888 | 34902 ft | 477 kts | 117° |
| 2026-04-26 21:32 | -11.13023 | 94.79910 | 34905 ft | 477 kts | 117° |
| 2026-04-26 21:33 | -11.16047 | 94.85924 | 34904 ft | 477 kts | 117° |
| 2026-04-26 21:33 | -11.19062 | 94.91945 | 34905 ft | 477 kts | 117° |
| 2026-04-26 21:34 | -11.22076 | 94.97966 | 34906 ft | 477 kts | 117° |
| 2026-04-26 21:34 | -11.25086 | 95.03988 | 34907 ft | 477 kts | 117° |
| 2026-04-26 21:35 | -11.28084 | 95.09969 | 34897 ft | 478 kts | 118° |
| 2026-04-26 21:35 | -11.31105 | 95.16008 | 34891 ft | 479 kts | 118° |
| 2026-04-26 21:36 | -11.34136 | 95.22066 | 33996 ft | 486 kts | 118° |
| 2026-04-26 21:36 | -11.35693 | 95.25178 | 32694 ft | 500 kts | 118° |
| 2026-04-26 21:36 | -11.37284 | 95.28362 | 31822 ft | 504 kts | 118° |
| 2026-04-26 21:37 | -11.38859 | 95.31523 | 31288 ft | 499 kts | 118° |
| 2026-04-26 21:37 | -11.40428 | 95.34675 | 30656 ft | 496 kts | 118° |
| 2026-04-26 21:37 | -11.41988 | 95.37808 | 30030 ft | 494 kts | 118° |
| 2026-04-26 21:37 | -11.43541 | 95.40918 | 29335 ft | 491 kts | 118° |
| 2026-04-26 21:38 | -11.45083 | 95.44001 | 28723 ft | 486 kts | 118° |
| 2026-04-26 21:38 | -11.46607 | 95.47057 | 28102 ft | 481 kts | 118° |
| 2026-04-26 21:38 | -11.48113 | 95.50083 | 27491 ft | 476 kts | 118° |
| 2026-04-26 21:38 | -11.49603 | 95.53082 | 26884 ft | 472 kts | 118° |
| 2026-04-26 21:39 | -11.51074 | 95.56047 | 26288 ft | 467 kts | 118° |
| 2026-04-26 21:39 | -11.52538 | 95.58993 | 25723 ft | 463 kts | 118° |
| 2026-04-26 21:39 | -11.53981 | 95.61902 | 25147 ft | 458 kts | 118° |
| 2026-04-26 21:39 | -11.55415 | 95.64781 | 24664 ft | 452 kts | 118° |
| 2026-04-26 21:40 | -11.56838 | 95.67631 | 24124 ft | 448 kts | 118° |
| 2026-04-26 21:40 | -11.58246 | 95.70451 | 23543 ft | 445 kts | 118° |
| 2026-04-26 21:40 | -11.59635 | 95.73242 | 23035 ft | 438 kts | 118° |
| 2026-04-26 21:40 | -11.61002 | 95.76000 | 22471 ft | 433 kts | 118° |
| 2026-04-26 21:41 | -11.62352 | 95.78725 | 21978 ft | 427 kts | 118° |
| 2026-04-26 21:41 | -11.63686 | 95.81415 | 21471 ft | 423 kts | 118° |
| 2026-04-26 21:41 | -11.65009 | 95.84084 | 20966 ft | 420 kts | 118° |
| 2026-04-26 21:41 | -11.66322 | 95.86733 | 20455 ft | 417 kts | 118° |
| 2026-04-26 21:42 | -11.67626 | 95.89367 | 19928 ft | 415 kts | 118° |
| 2026-04-26 21:42 | -11.68923 | 95.91987 | 19396 ft | 413 kts | 117° |
| 2026-04-26 21:42 | -11.70215 | 95.94593 | 18853 ft | 411 kts | 117° |
| 2026-04-26 21:42 | -11.71505 | 95.97190 | 18307 ft | 409 kts | 117° |
| 2026-04-26 21:43 | -11.72783 | 95.99769 | 17750 ft | 406 kts | 117° |
| 2026-04-26 21:43 | -11.74052 | 96.02325 | 17274 ft | 401 kts | 117° |
| 2026-04-26 21:43 | -11.75305 | 96.04849 | 16641 ft | 399 kts | 117° |
| 2026-04-26 21:43 | -11.76551 | 96.07361 | 16194 ft | 393 kts | 117° |
| 2026-04-26 21:44 | -11.77766 | 96.09813 | 15587 ft | 392 kts | 116° |
| 2026-04-26 21:44 | -11.78987 | 96.12277 | 15096 ft | 387 kts | 116° |
| 2026-04-26 21:44 | -11.80196 | 96.14716 | 14594 ft | 383 kts | 116° |
| 2026-04-26 21:44 | -11.81411 | 96.17167 | 14088 ft | 379 kts | 116° |
| 2026-04-26 21:45 | -11.82584 | 96.19536 | 13555 ft | 376 kts | 116° |
| 2026-04-26 21:45 | -11.83751 | 96.21899 | 13026 ft | 372 kts | 116° |
| 2026-04-26 21:45 | -11.84911 | 96.24252 | 12392 ft | 371 kts | 115° |
| 2026-04-26 21:45 | -11.86064 | 96.26589 | 11880 ft | 367 kts | 116° |
| 2026-04-26 21:46 | -11.87206 | 96.28898 | 11395 ft | 362 kts | 115° |
| 2026-04-26 21:46 | -11.88340 | 96.31193 | 10864 ft | 360 kts | 116° |
| 2026-04-26 21:46 | -11.89458 | 96.33461 | 10448 ft | 355 kts | 115° |
| 2026-04-26 21:46 | -11.90545 | 96.35667 | 10298 ft | 341 kts | 115° |
| 2026-04-26 21:47 | -11.91595 | 96.37793 | 10176 ft | 329 kts | 115° |
| 2026-04-26 21:47 | -11.92606 | 96.39839 | 10068 ft | 318 kts | 115° |
| 2026-04-26 21:47 | -11.93587 | 96.41818 | 9950 ft | 307 kts | 115° |
| 2026-04-26 21:47 | -11.94540 | 96.43747 | 9687 ft | 303 kts | 115° |
| 2026-04-26 21:48 | -11.95485 | 96.45664 | 9345 ft | 301 kts | 115° |
| 2026-04-26 21:48 | -11.96419 | 96.47570 | 8997 ft | 300 kts | 115° |
| 2026-04-26 21:48 | -11.97350 | 96.49468 | 8648 ft | 298 kts | 115° |
| 2026-04-26 21:48 | -11.98280 | 96.51353 | 8321 ft | 297 kts | 115° |
| 2026-04-26 21:49 | -11.99207 | 96.53231 | 7989 ft | 295 kts | 115° |
| 2026-04-26 21:49 | -12.00128 | 96.55100 | 7675 ft | 294 kts | 115° |
| 2026-04-26 21:49 | -12.01043 | 96.56959 | 7361 ft | 292 kts | 115° |
| 2026-04-26 21:49 | -12.01948 | 96.58796 | 6888 ft | 288 kts | 115° |
| 2026-04-26 21:50 | -12.02848 | 96.60620 | 6337 ft | 286 kts | 116° |
| 2026-04-26 21:50 | -12.03437 | 96.61817 | 5958 ft | 285 kts | 115° |
| 2026-04-26 21:50 | -12.04605 | 96.64225 | 5190 ft | 280 kts | 111° |
| 2026-04-26 21:50 | -12.05064 | 96.66130 | 4676 ft | 274 kts | 93° |
| 2026-04-26 21:51 | -12.04940 | 96.68047 | 4111 ft | 270 kts | 78° |
| 2026-04-26 21:51 | -12.04573 | 96.69919 | 3554 ft | 268 kts | 78° |
| 2026-04-26 21:51 | -12.04248 | 96.71779 | 3018 ft | 264 kts | 85° |
| 2026-04-26 21:51 | -12.04522 | 96.73622 | 2402 ft | 265 kts | 114° |
| 2026-04-26 21:52 | -12.05573 | 96.75072 | 2132 ft | 253 kts | 140° |
| 2026-04-26 21:52 | -12.06997 | 96.76006 | 1996 ft | 234 kts | 149° |
| 2026-04-26 21:52 | -12.08335 | 96.76815 | 1889 ft | 214 kts | 148° |
| 2026-04-26 21:52 | -12.09566 | 96.77561 | 1797 ft | 200 kts | 148° |
| 2026-04-26 21:53 | -12.10729 | 96.78267 | 1750 ft | 186 kts | 147° |
| 2026-04-26 21:53 | -12.11786 | 96.78905 | 1571 ft | 171 kts | 148° |
| 2026-04-26 21:53 | -12.12778 | 96.79502 | 1311 ft | 159 kts | 147° |
| 2026-04-26 21:53 | -12.13695 | 96.80057 | 1088 ft | 148 kts | 148° |
| 2026-04-26 21:54 | -12.14567 | 96.80584 | 888 ft | 144 kts | 147° |
| 2026-04-26 21:54 | -12.15427 | 96.81109 | 654 ft | 143 kts | 147° |
| 2026-04-26 21:54 | -12.16280 | 96.81643 | 467 ft | 145 kts | 148° |
| 2026-04-26 21:54 | -12.17148 | 96.82170 | 284 ft | 145 kts | 146° |
| 2026-04-26 21:55 | -12.18020 | 96.82701 | 96 ft | 146 kts | 149° |
| 2026-04-26 21:55 | -12.18858 | 96.83206 | 10 ft | 122 kts | 149° |
| 2026-04-26 21:55 | -12.19440 | 96.83560 | 17 ft | 73 kts | 150° |
| 2026-04-26 21:55 | -12.19728 | 96.83730 | 14 ft | 23 kts | 149° |
| 2026-04-26 21:56 | -12.19780 | 96.83762 | 13 ft | 4 kts | 149° |
| 2026-04-26 21:56 | -12.19787 | 96.83766 | 13 ft | 0 kts | 149° |
| 2026-04-26 21:56 | -12.19792 | 96.83769 | 13 ft | 3 kts | 149° |
| 2026-04-26 21:57 | -12.19823 | 96.83788 | 15 ft | 7 kts | 148° |
| 2026-04-26 21:57 | -12.19852 | 96.83800 | 13 ft | 2 kts | 258° |
| 2026-04-26 21:57 | -12.19842 | 96.83797 | 13 ft | 2 kts | 339° |
| 2026-04-26 21:57 | -12.19804 | 96.83776 | 13 ft | 11 kts | 328° |
| 2026-04-26 21:58 | -12.19713 | 96.83720 | 14 ft | 19 kts | 329° |
| 2026-04-26 21:58 | -12.19591 | 96.83645 | 15 ft | 22 kts | 329° |
| 2026-04-26 21:58 | -12.19447 | 96.83559 | 16 ft | 27 kts | 330° |
| 2026-04-26 21:58 | -12.19275 | 96.83456 | 15 ft | 30 kts | 329° |
| 2026-04-26 21:59 | -12.19089 | 96.83346 | 13 ft | 32 kts | 330° |
| 2026-04-26 21:59 | -12.18898 | 96.83230 | 12 ft | 26 kts | 329° |
| 2026-04-26 21:59 | -12.18743 | 96.83136 | 10 ft | 23 kts | 329° |
| 2026-04-26 21:59 | -12.18660 | 96.83070 | 10 ft | 9 kts | 274° |
| 2026-04-26 22:00 | -12.18680 | 96.83027 | 10 ft | 2 kts | 239° |
| 2026-04-26 22:00 | -12.18689 | 96.83012 | 12 ft | 3 kts | 239° |
| 2026-04-26 22:00 | -12.18702 | 96.82995 | 11 ft | 3 kts | 221° |
| 2026-04-26 22:00 | -12.18727 | 96.82987 | 11 ft | 4 kts | 195° |
| 2026-04-26 22:01 | -12.18738 | 96.82983 | 11 ft | 0 kts | 196° |